Martinsburg, West Virginia
Current Conditions -  °F | °C
As of 11:53 AM on Saturday 25 Oct 2014 (Local Time) from KMRB Reporting Station
Clear Clear  
Wind Chill: 67°   Ceiling: Unl
Heat Index: 67°   Visibility: 10mi
Dew Point: 40°   Wind: 15mph
Humidity: 37%   Direction: 260°W
Pressure: 29.91"   Gusts: 21mph
Location:  39.46°N, 77.96°W
Report Text: KMRB 251553Z 26013G18KT 10SM CLR 19/04 A2991 RMK AO2 SLP127 T01940044 $
Loading
Personal Weather Stations






























Interactive Weather Map
Tropical Storm Tracking
New forecast layout! Learn more

10-Day Weather Forecast

Advertisements
Track Severe Weather on mobile